Time;durP1;ratioP1;P1;durP2;ratioP2;P2;SDS_P1;SDS_P2;PMS_P1;PMS_P2;Temp;Humidity;BMP_temperature;BMP_pressure;BME280_temperature;BME280_humidity;BME280_pressure;Samples;Min_cycle;Max_cycle;Signal;HPM_P1;HPM_P2
2022/11/23 00:01:17;;;;;;;66.00;28.33;;;1.90;99.90;;;;;;5022165;28;20211;-70
2022/11/23 00:03:44;;;;;;;67.17;29.13;;;1.80;99.90;;;;;;5022458;28;20711;-70
2022/11/23 00:06:11;;;;;;;66.83;30.17;;;1.90;99.90;;;;;;5025719;28;20180;-71
2022/11/23 00:08:36;;;;;;;62.50;29.93;;;1.90;99.90;;;;;;5024443;28;20238;-70
2022/11/23 00:11:02;;;;;;;69.03;29.43;;;1.90;99.90;;;;;;5023023;28;20292;-70
2022/11/23 00:13:28;;;;;;;63.67;29.43;;;1.90;99.90;;;;;;5025749;28;20703;-69
2022/11/23 00:15:53;;;;;;;67.03;29.30;;;1.80;99.90;;;;;;5027207;28;20212;-72
2022/11/23 00:18:19;;;;;;;67.90;28.13;;;1.90;99.90;;;;;;5020860;28;20263;-70
2022/11/23 00:20:44;;;;;;;57.83;27.80;;;2.10;99.90;;;;;;5027375;28;20174;-69
2022/11/23 00:23:10;;;;;;;65.67;29.87;;;2.00;99.90;;;;;;5027745;28;20216;-69
2022/11/23 00:25:36;;;;;;;61.50;28.93;;;2.00;99.90;;;;;;5024480;28;20214;-68
2022/11/23 00:28:01;;;;;;;63.27;29.80;;;2.00;99.90;;;;;;5018886;28;20205;-69
2022/11/23 00:30:28;;;;;;;61.13;29.53;;;1.90;99.90;;;;;;5027547;28;20187;-70
2022/11/23 00:32:54;;;;;;;66.63;30.37;;;1.90;99.90;;;;;;5027605;28;20165;-69
2022/11/23 00:35:19;;;;;;;66.37;28.63;;;1.90;99.90;;;;;;5028700;28;20368;-69
2022/11/23 00:37:45;;;;;;;71.70;29.97;;;1.90;99.90;;;;;;5026642;28;20202;-69
2022/11/23 00:40:11;;;;;;;63.80;30.77;;;1.90;99.90;;;;;;5024816;28;20702;-70
2022/11/23 00:42:37;;;;;;;63.87;29.80;;;1.90;99.90;;;;;;5027089;28;20250;-68
2022/11/23 00:45:03;;;;;;;59.73;28.17;;;1.90;99.90;;;;;;5024376;28;20716;-69
2022/11/23 00:47:28;;;;;;;67.20;29.53;;;1.90;99.90;;;;;;5026374;28;20212;-69
2022/11/23 00:49:54;;;;;;;68.03;29.93;;;1.90;99.90;;;;;;5024744;28;20290;-68
2022/11/23 00:52:19;;;;;;;66.13;28.77;;;1.90;99.90;;;;;;5029184;28;20212;-69
2022/11/23 00:54:45;;;;;;;62.53;29.57;;;1.90;99.90;;;;;;5023926;28;20629;-70
2022/11/23 00:57:11;;;;;;;59.37;28.60;;;1.90;99.90;;;;;;5021812;28;20327;-69
2022/11/23 00:59:37;;;;;;;65.50;29.10;;;1.90;99.90;;;;;;5027988;28;20257;-70
2022/11/23 01:02:03;;;;;;;62.47;28.33;;;1.90;99.90;;;;;;5022472;28;20209;-70
2022/11/23 01:04:29;;;;;;;59.57;28.33;;;1.90;99.90;;;;;;5024617;28;20211;-70
2022/11/23 01:06:58;;;;;;;59.53;29.27;;;1.90;99.90;;;;;;5025374;28;20219;-68
2022/11/23 01:09:25;;;;;;;60.80;28.33;;;1.90;99.90;;;;;;5023513;28;20255;-69
2022/11/23 01:11:52;;;;;;;64.93;27.73;;;1.90;99.90;;;;;;5022427;28;20257;-69
2022/11/23 01:14:19;;;;;;;64.63;27.90;;;1.90;99.90;;;;;;5021570;28;20264;-69
2022/11/23 01:16:45;;;;;;;68.00;29.33;;;1.90;99.90;;;;;;5020287;28;20302;-69
2022/11/23 01:19:13;;;;;;;58.63;27.67;;;1.90;99.90;;;;;;5026761;28;20251;-67
2022/11/23 01:21:39;;;;;;;65.40;28.77;;;1.90;99.90;;;;;;5024310;28;20219;-68
2022/11/23 01:24:06;;;;;;;61.07;29.03;;;1.90;99.90;;;;;;5019651;28;20543;-69
2022/11/23 01:26:32;;;;;;;62.13;27.57;;;1.90;99.90;;;;;;5026168;28;20260;-69
2022/11/23 01:28:58;;;;;;;59.97;28.23;;;1.90;99.90;;;;;;5021924;28;20712;-68
2022/11/23 01:31:24;;;;;;;62.77;29.53;;;1.90;99.90;;;;;;5024711;28;20256;-68
2022/11/23 01:33:58;;;;;;;70.40;29.83;;;1.90;99.90;;;;;;5025976;28;20212;-68
2022/11/23 01:36:26;;;;;;;60.20;29.77;;;2.00;99.90;;;;;;5026850;28;20176;-69
2022/11/23 01:38:52;;;;;;;63.43;28.50;;;2.00;99.90;;;;;;5028876;28;20253;-69
2022/11/23 01:41:21;;;;;;;62.73;27.73;;;2.00;99.90;;;;;;5026750;28;20249;-69
2022/11/23 01:43:47;;;;;;;66.70;29.23;;;2.00;99.90;;;;;;5023700;28;20216;-69
2022/11/23 01:46:13;;;;;;;60.93;27.43;;;2.00;99.90;;;;;;5031696;28;20226;-69
2022/11/23 01:48:45;;;;;;;58.90;28.00;;;2.10;99.90;;;;;;5026537;28;20219;-69
2022/11/23 01:51:17;;;;;;;52.30;25.43;;;2.00;99.90;;;;;;5022832;28;20180;-69
2022/11/23 01:53:45;;;;;;;58.33;27.33;;;2.10;99.90;;;;;;5028246;28;20194;-69
2022/11/23 01:56:18;;;;;;;56.67;27.23;;;2.10;99.90;;;;;;5031349;28;20599;-69
2022/11/23 01:58:48;;;;;;;57.70;26.23;;;2.10;99.90;;;;;;5028936;28;20651;-69
2022/11/23 02:01:14;;;;;;;53.70;26.80;;;2.10;99.90;;;;;;5028592;28;20581;-68
2022/11/23 02:03:42;;;;;;;60.60;27.20;;;2.10;99.90;;;;;;5039787;23;20626;-75
2022/11/23 02:06:13;;;;;;;57.93;26.67;;;2.10;99.90;;;;;;5033735;28;20184;-75
2022/11/23 02:08:40;;;;;;;59.47;26.70;;;2.10;99.90;;;;;;5031962;28;20258;-74
2022/11/23 02:11:06;;;;;;;55.90;26.87;;;2.20;99.90;;;;;;5024454;28;20688;-74
2022/11/23 02:13:32;;;;;;;56.80;26.77;;;2.20;99.90;;;;;;5029517;28;20235;-74
2022/11/23 02:15:58;;;;;;;50.03;23.93;;;2.20;99.90;;;;;;5024005;28;20615;-75
2022/11/23 02:18:30;;;;;;;54.67;26.27;;;2.30;99.90;;;;;;5028284;28;20299;-74
2022/11/23 02:20:58;;;;;;;57.43;25.77;;;2.20;99.90;;;;;;5030428;28;20180;-71
2022/11/23 02:23:33;;;;;;;53.50;25.90;;;2.20;99.90;;;;;;5025295;28;20201;-74
2022/11/23 02:26:23;;;;;;;54.90;26.13;;;2.20;99.90;;;;;;5028601;28;20211;-73
2022/11/23 02:28:55;;;;;;;49.10;25.03;;;2.30;99.90;;;;;;5029357;28;20263;-74
2022/11/23 02:31:21;;;;;;;59.77;25.27;;;2.20;99.90;;;;;;5019594;28;20307;-74
2022/11/23 02:33:46;;;;;;;53.90;25.97;;;2.20;99.90;;;;;;5024927;28;20335;-72
2022/11/23 02:36:36;;;;;;;50.43;25.87;;;2.30;99.90;;;;;;5031069;28;20191;-71
2022/11/23 02:39:31;;;;;;;53.07;27.97;;;2.30;99.90;;;;;;5028139;28;20774;-72
2022/11/23 02:41:57;;;;;;;59.53;26.97;;;2.30;99.90;;;;;;5018564;28;20302;-74
2022/11/23 02:44:29;;;;;;;55.53;25.93;;;2.30;99.90;;;;;;5041567;28;20219;-74
2022/11/23 02:46:56;;;;;;;54.30;26.50;;;2.30;99.90;;;;;;5043627;28;20204;-74
2022/11/23 02:49:21;;;;;;;51.20;25.37;;;2.30;99.90;;;;;;5033092;28;20212;-73
2022/11/23 02:51:47;;;;;;;50.80;25.20;;;2.20;99.90;;;;;;5025350;28;20309;-74
2022/11/23 02:54:12;;;;;;;49.10;25.73;;;2.20;99.90;;;;;;5027190;28;20253;-74
2022/11/23 02:56:38;;;;;;;48.57;25.80;;;2.20;99.90;;;;;;5026256;28;20183;-74
2022/11/23 02:59:04;;;;;;;50.83;24.70;;;2.30;99.90;;;;;;5026264;28;20307;-74
2022/11/23 03:01:29;;;;;;;52.13;26.37;;;2.30;99.90;;;;;;5028776;28;20213;-74
2022/11/23 03:03:55;;;;;;;53.73;24.60;;;2.30;99.90;;;;;;5024432;28;20652;-75
2022/11/23 03:06:20;;;;;;;52.10;25.23;;;2.20;99.90;;;;;;5027474;28;20188;-74
2022/11/23 03:08:46;;;;;;;54.63;26.80;;;2.30;99.90;;;;;;5027342;28;20717;-74
2022/11/23 03:11:12;;;;;;;49.93;25.00;;;2.30;99.90;;;;;;5023785;28;20216;-75
2022/11/23 03:13:37;;;;;;;53.57;24.47;;;2.30;99.90;;;;;;5030472;28;20220;-74
2022/11/23 03:16:03;;;;;;;49.73;24.77;;;2.20;99.90;;;;;;5025001;28;20738;-74
2022/11/23 03:18:29;;;;;;;47.00;25.93;;;2.20;99.90;;;;;;5028473;28;20252;-72
2022/11/23 03:21:03;;;;;;;55.47;26.47;;;2.20;99.90;;;;;;5029720;28;20238;-73
2022/11/23 03:23:29;;;;;;;54.83;25.87;;;2.20;99.90;;;;;;5024825;28;20572;-73
2022/11/23 03:25:56;;;;;;;53.03;25.37;;;2.20;99.90;;;;;;5019286;28;20256;-74
2022/11/23 03:28:21;;;;;;;52.73;25.50;;;2.10;99.90;;;;;;5021534;28;20311;-74
2022/11/23 03:30:47;;;;;;;53.17;25.40;;;2.10;99.90;;;;;;5024618;28;20295;-75
2022/11/23 03:33:13;;;;;;;52.97;26.07;;;2.10;99.90;;;;;;5018089;28;20557;-75
2022/11/23 03:35:39;;;;;;;59.37;26.27;;;2.10;99.90;;;;;;5025568;28;20596;-74
2022/11/23 03:38:04;;;;;;;53.87;24.97;;;2.10;99.90;;;;;;5019952;28;20215;-75
2022/11/23 03:40:30;;;;;;;49.13;24.40;;;2.10;99.90;;;;;;5024122;28;20213;-74
2022/11/23 03:42:55;;;;;;;58.77;26.07;;;2.10;99.90;;;;;;5020314;28;20691;-75
2022/11/23 03:45:21;;;;;;;53.13;24.23;;;2.10;99.90;;;;;;5019220;28;20205;-76
2022/11/23 03:47:47;;;;;;;58.50;27.40;;;2.00;99.90;;;;;;5025480;28;20180;-75
2022/11/23 03:50:12;;;;;;;55.73;25.47;;;2.00;99.90;;;;;;5020291;28;20245;-75
2022/11/23 03:52:38;;;;;;;59.30;27.07;;;2.00;99.90;;;;;;5021715;28;20227;-75
2022/11/23 03:55:04;;;;;;;53.63;25.57;;;2.10;99.90;;;;;;5020569;28;20695;-71
2022/11/23 03:57:29;;;;;;;60.73;26.90;;;2.00;99.90;;;;;;5022751;28;20212;-73
2022/11/23 03:59:55;;;;;;;56.37;27.03;;;2.00;99.90;;;;;;5019247;28;20264;-71
2022/11/23 04:02:21;;;;;;;53.37;25.93;;;2.00;99.90;;;;;;5020957;28;20296;-73
2022/11/23 04:04:46;;;;;;;56.43;26.00;;;2.00;99.90;;;;;;5018932;28;20221;-73
2022/11/23 04:07:12;;;;;;;58.03;25.87;;;2.00;99.90;;;;;;5022564;28;20222;-73
2022/11/23 04:09:37;;;;;;;55.23;24.80;;;2.00;99.90;;;;;;5021162;28;20219;-74
2022/11/23 04:12:03;;;;;;;60.07;27.17;;;2.00;99.90;;;;;;5030971;28;20195;-73
2022/11/23 04:14:29;;;;;;;57.57;24.73;;;2.00;99.90;;;;;;5020766;28;20217;-71
2022/11/23 04:16:55;;;;;;;55.10;25.43;;;2.00;99.90;;;;;;5022483;28;20216;-73
2022/11/23 04:19:20;;;;;;;54.00;25.33;;;2.00;99.90;;;;;;5029343;28;20276;-73
2022/11/23 04:21:46;;;;;;;49.50;23.97;;;2.00;99.90;;;;;;5025553;28;20212;-74
2022/11/23 04:24:11;;;;;;;53.30;26.07;;;2.00;99.90;;;;;;5022080;28;20475;-74
2022/11/23 04:26:39;;;;;;;54.90;26.37;;;1.90;99.90;;;;;;5023587;28;20690;-72
2022/11/23 04:29:05;;;;;;;48.40;24.63;;;1.90;99.90;;;;;;5019041;28;20948;-73
2022/11/23 04:31:31;;;;;;;58.97;27.60;;;2.00;99.90;;;;;;5025745;28;20204;-74
2022/11/23 04:33:57;;;;;;;54.13;26.17;;;1.90;99.90;;;;;;5021918;28;20299;-74
2022/11/23 04:36:23;;;;;;;56.80;26.80;;;1.90;99.90;;;;;;5022551;28;20194;-74
2022/11/23 04:38:49;;;;;;;60.97;27.73;;;1.90;99.90;;;;;;5018531;28;20216;-76
2022/11/23 04:41:15;;;;;;;51.97;23.67;;;1.90;99.90;;;;;;5018445;28;20209;-73
2022/11/23 04:43:40;;;;;;;58.93;26.70;;;1.90;99.90;;;;;;5023014;28;20304;-73
2022/11/23 04:46:06;;;;;;;54.80;25.50;;;1.90;99.90;;;;;;5022409;28;20223;-74
2022/11/23 04:48:31;;;;;;;54.27;25.77;;;2.00;99.90;;;;;;5020927;28;20241;-74
2022/11/23 04:50:58;;;;;;;49.80;23.97;;;1.90;99.90;;;;;;5022393;28;20622;-74
2022/11/23 04:53:23;;;;;;;53.73;25.13;;;2.00;99.90;;;;;;5024026;28;20574;-74
2022/11/23 04:55:49;;;;;;;58.27;24.60;;;2.00;99.90;;;;;;5027435;28;20214;-75
2022/11/23 04:58:14;;;;;;;53.17;24.27;;;2.00;99.90;;;;;;5017889;28;20235;-73
2022/11/23 05:00:40;;;;;;;55.53;27.03;;;1.90;99.90;;;;;;5021567;28;20497;-75
2022/11/23 05:03:06;;;;;;;50.37;25.47;;;1.90;99.90;;;;;;5023039;28;20194;-73
2022/11/23 05:05:31;;;;;;;54.07;25.60;;;2.00;99.90;;;;;;5020868;28;20250;-75
2022/11/23 05:07:58;;;;;;;45.47;24.40;;;2.00;99.90;;;;;;5024883;28;20212;-74
2022/11/23 05:10:24;;;;;;;49.10;24.03;;;2.00;99.90;;;;;;5022386;28;20562;-72
2022/11/23 05:12:49;;;;;;;47.70;23.47;;;2.00;99.90;;;;;;5021073;28;20213;-75
2022/11/23 05:15:15;;;;;;;49.47;23.10;;;2.00;99.90;;;;;;5022364;28;20224;-74
2022/11/23 05:17:41;;;;;;;48.27;23.77;;;2.00;99.90;;;;;;5021189;28;20223;-72
2022/11/23 05:20:07;;;;;;;44.87;23.97;;;2.10;99.90;;;;;;5022713;28;20340;-73
2022/11/23 05:22:33;;;;;;;43.63;23.90;;;2.10;99.90;;;;;;5023388;28;20222;-73
2022/11/23 05:24:59;;;;;;;49.53;21.80;;;2.00;99.90;;;;;;5020220;28;20213;-74
2022/11/23 05:27:24;;;;;;;49.67;23.80;;;2.00;99.90;;;;;;5019112;28;20216;-73
2022/11/23 05:29:50;;;;;;;56.07;23.90;;;2.10;99.90;;;;;;5025368;28;20180;-75
2022/11/23 05:32:16;;;;;;;47.17;24.07;;;2.10;99.90;;;;;;5023281;28;20750;-73
2022/11/23 05:34:41;;;;;;;49.07;22.70;;;2.10;99.90;;;;;;5025321;28;20772;-73
2022/11/23 05:37:07;;;;;;;42.50;21.43;;;2.10;99.90;;;;;;5022838;28;20219;-73
2022/11/23 05:39:33;;;;;;;46.63;22.37;;;2.10;99.90;;;;;;5026448;28;20223;-74
2022/11/23 05:41:58;;;;;;;43.17;22.40;;;2.20;99.90;;;;;;5025696;28;20188;-72
2022/11/23 05:44:24;;;;;;;47.50;22.67;;;2.10;99.90;;;;;;5024132;28;20237;-74
2022/11/23 05:46:49;;;;;;;47.97;23.50;;;2.10;99.90;;;;;;5028782;28;20216;-73
2022/11/23 05:49:15;;;;;;;43.47;22.77;;;2.20;99.90;;;;;;5022951;28;20291;-73
2022/11/23 05:51:41;;;;;;;49.47;24.03;;;2.10;99.90;;;;;;5021947;28;20274;-73
2022/11/23 05:54:06;;;;;;;45.63;22.30;;;2.20;99.90;;;;;;5020737;28;20263;-72
2022/11/23 05:56:32;;;;;;;47.53;23.67;;;2.20;99.90;;;;;;5023230;28;20215;-73
2022/11/23 05:58:57;;;;;;;46.17;23.23;;;2.20;99.90;;;;;;5019307;28;20669;-73
2022/11/23 06:01:23;;;;;;;45.00;22.43;;;2.10;99.90;;;;;;5025004;28;20300;-72
2022/11/23 06:03:50;;;;;;;43.63;21.77;;;2.10;99.90;;;;;;5027850;28;20216;-73
2022/11/23 06:06:16;;;;;;;42.73;20.73;;;2.10;99.90;;;;;;5028370;28;20188;-73
2022/11/23 06:08:41;;;;;;;44.47;22.23;;;2.10;99.90;;;;;;5025850;28;20234;-73
2022/11/23 06:11:07;;;;;;;46.73;21.57;;;2.10;99.90;;;;;;5020942;28;20246;-71
2022/11/23 06:13:32;;;;;;;43.83;20.33;;;2.10;99.90;;;;;;5022838;28;20224;-73
2022/11/23 06:15:58;;;;;;;46.53;22.57;;;2.10;99.90;;;;;;5020319;28;20313;-72
2022/11/23 06:18:24;;;;;;;41.67;21.23;;;2.10;99.90;;;;;;5029870;28;20189;-73
2022/11/23 06:20:49;;;;;;;42.07;21.97;;;2.10;99.90;;;;;;5022388;28;20225;-75
2022/11/23 06:23:15;;;;;;;43.03;20.23;;;2.10;99.90;;;;;;5022811;28;20216;-72
2022/11/23 06:25:40;;;;;;;42.20;21.57;;;2.10;99.90;;;;;;5049233;28;20242;-73
2022/11/23 06:28:06;;;;;;;39.30;21.10;;;2.10;99.90;;;;;;5035901;28;20339;-71
2022/11/23 06:30:32;;;;;;;43.73;20.33;;;2.10;99.90;;;;;;5031532;28;20268;-72
2022/11/23 06:33:01;;;;;;;37.07;19.80;;;2.00;99.90;;;;;;5027286;28;20184;-74
2022/11/23 06:35:26;;;;;;;45.30;21.90;;;2.00;99.90;;;;;;5025538;28;20215;-76
2022/11/23 06:37:53;;;;;;;46.80;22.37;;;2.00;99.90;;;;;;5028688;28;20747;-71
2022/11/23 06:40:19;;;;;;;41.23;22.17;;;2.00;99.90;;;;;;5026579;28;20225;-74
2022/11/23 06:42:45;;;;;;;42.63;22.10;;;2.00;99.90;;;;;;5027483;28;20208;-74
2022/11/23 06:45:11;;;;;;;46.63;22.47;;;2.00;99.90;;;;;;5027348;28;20585;-72
2022/11/23 06:47:37;;;;;;;44.00;21.00;;;2.00;99.90;;;;;;5029652;28;20191;-74
2022/11/23 06:50:03;;;;;;;48.20;21.67;;;2.00;99.90;;;;;;5026331;28;20214;-72
2022/11/23 06:52:28;;;;;;;43.67;22.30;;;2.00;99.90;;;;;;5030621;28;20219;-73
2022/11/23 06:54:54;;;;;;;38.87;21.00;;;2.00;99.90;;;;;;5030589;28;20226;-73
2022/11/23 06:57:19;;;;;;;44.07;22.27;;;2.00;99.90;;;;;;5024024;28;20182;-74
2022/11/23 06:59:45;;;;;;;42.73;21.80;;;2.00;99.90;;;;;;5027818;28;20200;-71
2022/11/23 07:02:11;;;;;;;45.13;20.87;;;2.00;99.90;;;;;;5027736;28;20671;-73
2022/11/23 07:04:37;;;;;;;43.30;21.03;;;2.00;99.90;;;;;;5028166;28;20226;-72
2022/11/23 07:07:03;;;;;;;47.73;21.37;;;2.00;99.90;;;;;;5023695;28;20223;-74
2022/11/23 07:09:28;;;;;;;43.87;22.87;;;2.00;99.90;;;;;;5023930;28;20240;-73
2022/11/23 07:11:54;;;;;;;40.67;22.37;;;2.00;99.90;;;;;;5026561;28;20256;-73
2022/11/23 07:14:19;;;;;;;42.97;20.53;;;2.00;99.90;;;;;;5025381;28;20304;-74
2022/11/23 07:16:45;;;;;;;46.30;21.43;;;2.00;99.90;;;;;;5023233;28;20204;-72
2022/11/23 07:19:11;;;;;;;41.87;22.03;;;2.00;99.90;;;;;;5029533;28;20703;-73
2022/11/23 07:21:36;;;;;;;45.23;22.17;;;2.10;99.90;;;;;;5030173;28;20219;-74
2022/11/23 07:24:02;;;;;;;45.27;21.77;;;2.00;99.90;;;;;;5028623;28;20252;-74
2022/11/23 07:26:28;;;;;;;45.33;22.27;;;2.00;99.90;;;;;;5030394;28;20951;-74
2022/11/23 07:28:53;;;;;;;44.93;21.47;;;2.10;99.90;;;;;;5023448;28;20215;-74
2022/11/23 07:31:19;;;;;;;46.77;22.20;;;2.10;99.90;;;;;;5026259;28;20209;-73
2022/11/23 07:33:45;;;;;;;45.40;22.27;;;2.10;99.90;;;;;;5024301;28;20695;-74
2022/11/23 07:36:11;;;;;;;39.57;21.47;;;2.10;99.90;;;;;;5029841;28;20644;-73
2022/11/23 07:38:37;;;;;;;44.17;21.73;;;2.20;99.90;;;;;;5028445;28;20211;-74
2022/11/23 07:41:03;;;;;;;43.57;22.37;;;2.40;99.90;;;;;;5022295;28;20212;-75
2022/11/23 07:43:29;;;;;;;37.17;20.47;;;2.50;99.90;;;;;;5026579;28;20261;-74
2022/11/23 07:45:56;;;;;;;39.07;20.13;;;2.60;99.90;;;;;;5023353;28;20216;-72
2022/11/23 07:48:22;;;;;;;36.83;19.17;;;2.70;99.90;;;;;;5026179;28;20185;-74
2022/11/23 07:50:50;;;;;;;32.20;18.53;;;2.90;99.90;;;;;;5028533;28;20191;-74
2022/11/23 07:53:16;;;;;;;34.53;18.07;;;3.00;99.90;;;;;;5024081;28;20219;-74
2022/11/23 07:55:42;;;;;;;32.00;17.87;;;3.00;99.90;;;;;;5022001;28;20309;-75
2022/11/23 07:58:09;;;;;;;32.63;18.57;;;3.10;99.90;;;;;;5025401;28;20208;-72
2022/11/23 08:00:34;;;;;;;37.77;19.97;;;3.00;99.90;;;;;;5023861;28;20584;-72
2022/11/23 08:03:00;;;;;;;36.37;18.57;;;2.90;99.90;;;;;;5023392;28;20287;-72
2022/11/23 08:05:26;;;;;;;38.03;19.57;;;2.90;99.90;;;;;;5025535;28;20232;-73
2022/11/23 08:07:59;;;;;;;35.90;18.97;;;2.80;99.90;;;;;;5022056;28;20242;-73
2022/11/23 08:13:11;;;;;;;46.60;24.90;;;2.60;99.90;;;;;;5034122;28;20232;-69
2022/11/23 08:15:36;;;;;;;37.27;20.07;;;2.60;99.90;;;;;;5025012;28;20212;-70
2022/11/23 08:18:03;;;;;;;40.07;20.37;;;2.60;99.90;;;;;;5035026;28;20570;-68
2022/11/23 08:20:29;;;;;;;38.20;20.43;;;2.60;99.90;;;;;;5033208;28;20258;-69
2022/11/23 08:22:55;;;;;;;38.17;18.43;;;2.50;99.90;;;;;;5027339;28;20219;-69
2022/11/23 08:25:26;;;;;;;39.23;19.73;;;2.60;99.90;;;;;;5034305;28;20207;-69
2022/11/23 08:28:03;;;;;;;39.37;20.27;;;2.60;99.90;;;;;;5025804;28;20205;-69
2022/11/23 08:30:29;;;;;;;33.57;18.37;;;2.60;99.90;;;;;;5031208;28;20222;-69
2022/11/23 08:32:55;;;;;;;37.17;19.23;;;2.60;99.90;;;;;;5029476;28;20239;-69
2022/11/23 08:35:21;;;;;;;40.47;21.07;;;2.70;99.90;;;;;;5025086;28;20615;-68
2022/11/23 08:37:47;;;;;;;37.70;19.73;;;2.60;99.90;;;;;;5031037;28;20200;-71
2022/11/23 08:40:13;;;;;;;40.17;20.13;;;2.70;99.90;;;;;;5028528;28;20330;-71
2022/11/23 08:42:39;;;;;;;37.30;19.43;;;2.70;99.90;;;;;;5027704;28;20211;-68
2022/11/23 08:45:05;;;;;;;40.63;20.63;;;2.70;99.90;;;;;;5033990;28;20187;-68
2022/11/23 08:47:31;;;;;;;38.70;19.47;;;2.80;99.90;;;;;;5030870;28;20615;-70
2022/11/23 08:49:57;;;;;;;36.13;19.77;;;3.00;99.90;;;;;;5027262;28;20248;-73
2022/11/23 08:52:23;;;;;;;40.20;19.23;;;3.10;99.90;;;;;;5031673;28;20295;-69
2022/11/23 08:54:48;;;;;;;37.20;19.17;;;3.10;99.90;;;;;;5038394;28;20266;-70
2022/11/23 08:57:14;;;;;;;31.00;18.30;;;3.20;99.90;;;;;;5036074;28;20660;-70
2022/11/23 08:59:39;;;;;;;34.60;19.07;;;3.40;99.90;;;;;;5029029;28;20206;-71
2022/11/23 09:02:05;;;;;;;36.50;19.20;;;3.40;99.90;;;;;;5024566;28;20788;-70
2022/11/23 09:04:31;;;;;;;32.80;19.07;;;3.40;99.90;;;;;;5031482;28;20202;-69
2022/11/23 09:06:56;;;;;;;37.57;19.37;;;3.40;99.90;;;;;;5027223;28;20224;-70
2022/11/23 09:09:22;;;;;;;34.93;19.20;;;3.40;99.90;;;;;;5032956;28;20210;-70
2022/11/23 09:11:48;;;;;;;35.90;19.07;;;3.60;99.90;;;;;;5031989;28;20463;-70
2022/11/23 09:14:14;;;;;;;30.60;18.33;;;3.80;99.90;;;;;;5028967;28;20206;-70
2022/11/23 09:16:40;;;;;;;31.50;17.67;;;3.80;99.90;;;;;;5026515;28;20219;-70
2022/11/23 09:19:07;;;;;;;34.33;18.33;;;3.90;99.90;;;;;;5032107;28;20552;-71
2022/11/23 09:21:34;;;;;;;33.17;17.97;;;4.00;99.90;;;;;;5025899;28;20269;-70
2022/11/23 09:24:01;;;;;;;30.53;17.83;;;4.00;99.90;;;;;;5027721;28;20179;-68
2022/11/23 09:26:26;;;;;;;34.93;18.67;;;4.10;99.90;;;;;;5036198;28;20624;-70
2022/11/23 09:28:52;;;;;;;33.00;18.13;;;4.30;99.90;;;;;;5026073;28;20209;-70
2022/11/23 09:31:18;;;;;;;32.20;17.10;;;4.50;99.90;;;;;;5027673;28;20268;-70
2022/11/23 09:33:43;;;;;;;31.10;17.23;;;4.60;99.90;;;;;;5028470;28;20212;-69
2022/11/23 09:36:09;;;;;;;30.03;15.93;;;4.80;99.90;;;;;;5025642;28;20185;-69
2022/11/23 09:38:35;;;;;;;31.47;16.57;;;4.90;99.90;;;;;;5024640;28;20212;-69
2022/11/23 09:41:15;;;;;;;31.37;16.80;;;5.00;99.90;;;;;;5026839;28;20221;-69
2022/11/23 09:43:43;;;;;;;29.77;17.23;;;4.90;99.90;;;;;;5026296;28;20586;-70
2022/11/23 09:46:33;;;;;;;28.37;15.87;;;4.70;99.90;;;;;;5031848;28;20248;-70
2022/11/23 09:49:19;;;;;;;50.80;24.67;;;4.50;99.90;;;;;;5022463;28;20222;-70
2022/11/23 09:51:46;;;;;;;31.80;17.80;;;4.60;99.90;;;;;;5032374;28;20860;-70
2022/11/23 09:54:32;;;;;;;34.93;18.33;;;4.50;99.90;;;;;;5033469;28;20764;-70
2022/11/23 09:56:58;;;;;;;32.50;17.57;;;4.80;99.90;;;;;;5040509;28;20256;-71
2022/11/23 09:59:55;;;;;;;30.90;17.73;;;5.00;99.90;;;;;;5036880;28;20215;-71
2022/11/23 10:02:25;;;;;;;28.93;16.17;;;5.10;99.90;;;;;;5029279;28;20219;-70
2022/11/23 10:04:57;;;;;;;27.03;16.60;;;5.20;99.90;;;;;;5031996;28;20205;-71
2022/11/23 10:07:53;;;;;;;28.27;16.30;;;5.30;99.90;;;;;;5030826;28;20688;-71
2022/11/23 10:10:25;;;;;;;24.10;15.53;;;5.60;99.90;;;;;;5028877;28;20211;-71
2022/11/23 10:13:24;;;;;;;27.77;14.77;;;5.60;99.90;;;;;;5034803;28;20249;-71
2022/11/23 10:16:02;;;;;;;25.83;15.00;;;5.80;99.90;;;;;;5026228;28;20217;-71
2022/11/23 10:18:41;;;;;;;25.07;14.27;;;5.80;99.90;;;;;;5034225;28;20183;-71
2022/11/23 10:21:09;;;;;;;20.07;12.53;;;5.80;99.90;;;;;;5028524;28;20209;-70
2022/11/23 10:23:44;;;;;;;25.27;14.23;;;6.00;99.90;;;;;;5024894;28;20216;-71
2022/11/23 10:26:15;;;;;;;25.97;14.37;;;6.20;99.90;;;;;;5037617;28;20291;-70
2022/11/23 10:28:41;;;;;;;27.27;15.50;;;6.10;99.90;;;;;;5028691;28;20588;-70
2022/11/23 10:31:27;;;;;;;26.73;14.53;;;5.90;99.90;;;;;;5032440;28;20312;-71
2022/11/23 10:34:07;;;;;;;27.93;15.10;;;5.70;99.90;;;;;;5031193;28;20243;-68
2022/11/23 10:36:35;;;;;;;26.50;15.33;;;5.70;99.90;;;;;;5025996;28;20259;-70
2022/11/23 10:39:01;;;;;;;25.50;14.47;;;5.70;99.90;;;;;;5036720;28;20231;-69
2022/11/23 10:41:29;;;;;;;26.27;14.03;;;5.70;99.90;;;;;;5032244;28;20235;-69
2022/11/23 10:44:04;;;;;;;23.57;13.90;;;5.70;99.90;;;;;;5023664;28;20205;-69
2022/11/23 10:46:33;;;;;;;24.50;12.93;;;5.60;99.90;;;;;;5037141;28;20212;-70
2022/11/23 10:49:20;;;;;;;22.73;13.53;;;5.60;99.90;;;;;;5029834;28;20265;-69
2022/11/23 10:51:51;;;;;;;24.80;13.93;;;5.70;99.90;;;;;;5030603;28;20334;-70
2022/11/23 10:54:23;;;;;;;25.77;14.13;;;5.80;99.90;;;;;;5031355;28;20519;-70
2022/11/23 10:56:51;;;;;;;24.00;12.77;;;5.80;99.90;;;;;;5024937;28;20182;-70
2022/11/23 10:59:37;;;;;;;24.50;13.50;;;5.90;99.90;;;;;;5038240;28;20222;-67
2022/11/23 11:02:20;;;;;;;24.57;13.80;;;5.90;99.90;;;;;;5031003;28;20570;-67
2022/11/23 11:04:47;;;;;;;21.50;13.27;;;6.10;99.90;;;;;;5028987;28;20204;-70
2022/11/23 11:07:27;;;;;;;21.90;13.20;;;6.10;99.90;;;;;;5035600;28;20286;-70
2022/11/23 11:09:59;;;;;;;23.67;13.40;;;6.00;99.90;;;;;;5024869;28;20239;-68
2022/11/23 11:12:26;;;;;;;25.23;13.37;;;6.10;99.90;;;;;;5033706;28;20227;-69
2022/11/23 11:15:15;;;;;;;25.23;13.63;;;6.10;99.90;;;;;;5029258;28;20179;-69
2022/11/23 11:17:41;;;;;;;25.67;13.27;;;6.10;99.90;;;;;;5027525;28;20201;-70
2022/11/23 11:20:32;;;;;;;24.83;12.90;;;6.20;99.90;;;;;;5033198;28;20292;-70
2022/11/23 11:23:14;;;;;;;29.33;13.23;;;6.30;99.90;;;;;;5026940;28;20212;-70
2022/11/23 11:25:40;;;;;;;26.37;14.50;;;6.40;99.90;;;;;;5032528;28;20234;-71
2022/11/23 11:28:33;;;;;;;24.00;13.83;;;6.40;99.90;;;;;;5034063;28;20694;-71
2022/11/23 11:31:19;;;;;;;25.40;14.37;;;6.50;99.90;;;;;;5024679;28;20250;-70
2022/11/23 11:33:54;;;;;;;25.70;15.17;;;6.60;99.90;;;;;;5031279;28;20798;-70
2022/11/23 11:36:22;;;;;;;26.90;14.27;;;6.60;99.90;;;;;;5026806;28;20183;-70
2022/11/23 11:38:52;;;;;;;25.30;15.10;;;6.60;99.90;;;;;;5026615;28;20201;-70
2022/11/23 11:41:23;;;;;;;30.00;15.50;;;6.60;99.90;;;;;;5028950;28;20222;-69
2022/11/23 11:43:56;;;;;;;26.77;15.37;;;6.60;99.90;;;;;;5024476;28;20691;-70
2022/11/23 11:46:35;;;;;;;26.27;15.50;;;6.50;99.90;;;;;;5033092;28;20204;-70
2022/11/23 11:49:20;;;;;;;29.07;16.23;;;6.50;99.90;;;;;;5029461;28;20208;-68
2022/11/23 11:52:07;;;;;;;26.87;14.73;;;6.50;99.90;;;;;;5028225;28;20294;-69
2022/11/23 11:54:43;;;;;;;26.83;15.53;;;6.60;99.90;;;;;;5028264;28;21004;-70
2022/11/23 11:57:26;;;;;;;33.40;17.60;;;6.70;99.90;;;;;;5025462;28;20173;-70
2022/11/23 11:59:56;;;;;;;28.33;16.43;;;6.80;99.90;;;;;;5032645;28;20242;-69
2022/11/23 12:02:24;;;;;;;29.17;14.83;;;7.00;99.90;;;;;;5033320;28;20318;-71
2022/11/23 12:04:58;;;;;;;27.07;15.40;;;6.90;99.90;;;;;;5021705;28;20209;-70
2022/11/23 12:07:23;;;;;;;27.97;14.97;;;6.90;99.90;;;;;;5030409;28;20576;-71
2022/11/23 12:09:54;;;;;;;23.23;14.40;;;6.90;99.90;;;;;;5032831;28;20289;-74
2022/11/23 12:12:21;;;;;;;29.27;13.87;;;7.00;99.90;;;;;;5026413;28;20211;-74
2022/11/23 12:14:46;;;;;;;32.50;17.60;;;7.00;99.90;;;;;;5033332;28;20191;-76
2022/11/23 12:17:42;;;;;;;33.17;15.90;;;7.00;99.90;;;;;;5027470;28;20215;-76
2022/11/23 12:20:23;;;;;;;24.67;13.80;;;7.00;99.90;;;;;;5037238;28;20216;-70
2022/11/23 12:23:15;;;;;;;25.83;14.73;;;6.90;99.90;;;;;;5027111;28;20215;-73
2022/11/23 12:25:47;;;;;;;20.93;12.83;;;7.00;99.90;;;;;;5028215;28;20212;-70
2022/11/23 12:29:00;;;;;;;27.30;15.00;;;7.00;99.90;;;;;;5049534;28;20262;-71
2022/11/23 12:32:10;;;;;;;24.67;13.90;;;7.00;99.90;;;;;;5015990;28;20216;-70
2022/11/23 12:34:44;;;;;;;23.40;14.13;;;7.00;99.90;;;;;;5032728;28;20591;-69
2022/11/23 12:37:19;;;;;;;26.10;15.27;;;7.20;99.90;;;;;;5028669;28;20208;-68
2022/11/23 12:40:42;;;;;;;21.07;13.43;;;7.10;99.90;;;;;;5031307;28;20748;-71
2022/11/23 12:43:25;;;;;;;28.60;15.83;;;7.20;99.90;;;;;;4981743;28;20209;-70
2022/11/23 12:45:58;;;;;;;29.63;17.47;;;7.10;99.90;;;;;;4964256;28;20212;-71
2022/11/23 12:48:55;;;;;;;25.47;13.97;;;7.20;99.90;;;;;;5014785;28;20187;-72